Erwinville, Louisiana
Current Conditions -  °F | °C
As of 3:55 PM on Thursday 27 Nov 2014 (Local Time) from KHZR Reporting Station
Clear Clear  
Wind Chill: 58°   Ceiling: Unl
Heat Index: 58°   Visibility: 10mi
Dew Point: 30°   Wind: 6mph
Humidity: 36%   Direction: 320°NW
Pressure: 30.42"   Gusts: NA
Location:  30.53°N, 91.41°W
Report Text: KHZR 272155Z AUTO 32005KT 10SM CLR 14/M01 A3042 RMK AO2 T01421009
Loading
Personal Weather Stations






























Interactive Weather Map New forecast layout! Learn more

10-Day Weather Forecast

Advertisements
Track Severe Weather on mobile